sensor_id;sensor_type;location;lat;lon;timestamp;pressure;altitude;pressure_sealevel;temperature;humidity
86012;BME280;76591;42.170;27.850;2024-03-02T00:00:08;101123.91;;;8.76;81.94
86012;BME280;76591;42.170;27.850;2024-03-02T00:02:45;101126.44;;;8.78;82.03
86012;BME280;76591;42.170;27.850;2024-03-02T00:05:19;101125.16;;;8.74;82.16
86012;BME280;76591;42.170;27.850;2024-03-02T00:07:52;101125.16;;;8.74;82.26
86012;BME280;76591;42.170;27.850;2024-03-02T00:10:20;101129.97;;;8.78;82.03
86012;BME280;76591;42.170;27.850;2024-03-02T00:12:48;101136.19;;;8.79;82.12
86012;BME280;76591;42.170;27.850;2024-03-02T00:18:40;101130.19;;;8.77;82.05
86012;BME280;76591;42.170;27.850;2024-03-02T00:21:06;101121.00;;;8.78;81.83
86012;BME280;76591;42.170;27.850;2024-03-02T00:23:35;101119.13;;;8.78;81.92
86012;BME280;76591;42.170;27.850;2024-03-02T00:26:01;101110.81;;;8.80;82.08
86012;BME280;76591;42.170;27.850;2024-03-02T00:28:34;101109.16;;;8.85;82.29
86012;BME280;76591;42.170;27.850;2024-03-02T00:31:07;101106.66;;;8.84;81.95
86012;BME280;76591;42.170;27.850;2024-03-02T00:36:03;101110.38;;;8.83;82.02
86012;BME280;76591;42.170;27.850;2024-03-02T00:38:34;101110.59;;;8.88;82.01
86012;BME280;76591;42.170;27.850;2024-03-02T00:41:16;101108.09;;;8.86;82.11
86012;BME280;76591;42.170;27.850;2024-03-02T00:43:51;101109.34;;;8.91;81.80
86012;BME280;76591;42.170;27.850;2024-03-02T00:46:20;101098.53;;;8.91;81.75
86012;BME280;76591;42.170;27.850;2024-03-02T00:49:00;101102.50;;;8.88;81.72
86012;BME280;76591;42.170;27.850;2024-03-02T00:51:28;101093.31;;;8.82;81.80
86012;BME280;76591;42.170;27.850;2024-03-02T00:53:58;101093.31;;;8.82;81.93
86012;BME280;76591;42.170;27.850;2024-03-02T00:56:25;101100.81;;;8.80;81.73
86012;BME280;76591;42.170;27.850;2024-03-02T00:58:52;101101.63;;;8.81;81.83
86012;BME280;76591;42.170;27.850;2024-03-02T01:01:18;101096.44;;;8.86;82.07
86012;BME280;76591;42.170;27.850;2024-03-02T01:03:45;101083.94;;;8.85;81.84
86012;BME280;76591;42.170;27.850;2024-03-02T01:06:11;101074.34;;;8.82;81.70
86012;BME280;76591;42.170;27.850;2024-03-02T01:08:37;101073.72;;;8.80;81.69
86012;BME280;76591;42.170;27.850;2024-03-02T01:11:04;101074.78;;;8.73;81.87
86012;BME280;76591;42.170;27.850;2024-03-02T01:13:30;101079.16;;;8.74;81.83
86012;BME280;76591;42.170;27.850;2024-03-02T01:15:56;101068.13;;;8.75;82.03
86012;BME280;76591;42.170;27.850;2024-03-02T01:18:22;101067.06;;;8.76;81.85
86012;BME280;76591;42.170;27.850;2024-03-02T01:20:48;101069.56;;;8.78;81.87
86012;BME280;76591;42.170;27.850;2024-03-02T01:23:13;101082.28;;;8.77;82.04
86012;BME280;76591;42.170;27.850;2024-03-02T01:25:39;101087.28;;;8.80;82.05
86012;BME280;76591;42.170;27.850;2024-03-02T01:28:05;101077.91;;;8.83;82.11
86012;BME280;76591;42.170;27.850;2024-03-02T01:30:31;101083.72;;;8.86;82.13
86012;BME280;76591;42.170;27.850;2024-03-02T01:32:57;101082.28;;;8.84;81.66
86012;BME280;76591;42.170;27.850;2024-03-02T01:35:24;101074.56;;;8.81;81.87
86012;BME280;76591;42.170;27.850;2024-03-02T01:37:50;101071.03;;;8.80;82.02
86012;BME280;76591;42.170;27.850;2024-03-02T01:40:16;101071.66;;;8.82;82.00
86012;BME280;76591;42.170;27.850;2024-03-02T01:42:43;101067.06;;;8.90;81.69
86012;BME280;76591;42.170;27.850;2024-03-02T01:45:09;101057.09;;;8.83;81.77
86012;BME280;76591;42.170;27.850;2024-03-02T01:47:34;101046.25;;;8.83;81.72
86012;BME280;76591;42.170;27.850;2024-03-02T01:50:00;101049.38;;;8.80;81.72
86012;BME280;76591;42.170;27.850;2024-03-02T01:52:27;101037.09;;;8.84;81.68
86012;BME280;76591;42.170;27.850;2024-03-02T01:54:52;101029.78;;;8.85;81.60
86012;BME280;76591;42.170;27.850;2024-03-02T01:57:19;101028.97;;;8.78;81.49
86012;BME280;76591;42.170;27.850;2024-03-02T01:59:45;101031.69;;;8.78;81.84
86012;BME280;76591;42.170;27.850;2024-03-02T02:02:13;101043.75;;;8.82;81.57
86012;BME280;76591;42.170;27.850;2024-03-02T02:04:39;101038.97;;;8.84;81.53
86012;BME280;76591;42.170;27.850;2024-03-02T02:07:05;101048.53;;;8.86;81.52
86012;BME280;76591;42.170;27.850;2024-03-02T02:09:32;101041.25;;;8.87;81.58
86012;BME280;76591;42.170;27.850;2024-03-02T02:11:57;101050.00;;;8.82;81.29
86012;BME280;76591;42.170;27.850;2024-03-02T02:14:23;101047.72;;;8.79;81.40
86012;BME280;76591;42.170;27.850;2024-03-02T02:16:49;101055.00;;;8.85;81.57
86012;BME280;76591;42.170;27.850;2024-03-02T02:19:14;101055.59;;;8.94;81.54
86012;BME280;76591;42.170;27.850;2024-03-02T02:21:43;101058.09;;;8.96;81.17
86012;BME280;76591;42.170;27.850;2024-03-02T02:24:09;101062.25;;;8.92;80.97
86012;BME280;76591;42.170;27.850;2024-03-02T02:26:35;101060.81;;;8.89;80.96
86012;BME280;76591;42.170;27.850;2024-03-02T02:29:01;101071.44;;;8.91;81.10
86012;BME280;76591;42.170;27.850;2024-03-02T02:31:35;101067.06;;;8.90;80.90
86012;BME280;76591;42.170;27.850;2024-03-02T02:34:01;101071.44;;;8.91;80.92
86012;BME280;76591;42.170;27.850;2024-03-02T02:36:27;101063.97;;;8.86;81.06
86012;BME280;76591;42.170;27.850;2024-03-02T02:38:52;101068.53;;;8.85;80.80
86012;BME280;76591;42.170;27.850;2024-03-02T02:41:18;101074.78;;;8.86;80.92
86012;BME280;76591;42.170;27.850;2024-03-02T02:43:44;101080.59;;;8.90;80.88
86012;BME280;76591;42.170;27.850;2024-03-02T02:46:09;101076.66;;;8.92;80.89
86012;BME280;76591;42.170;27.850;2024-03-02T02:48:35;101070.38;;;8.92;80.82
86012;BME280;76591;42.170;27.850;2024-03-02T02:51:01;101079.56;;;8.91;80.68
86012;BME280;76591;42.170;27.850;2024-03-02T02:53:27;101076.03;;;8.90;80.71
86012;BME280;76591;42.170;27.850;2024-03-02T02:55:53;101061.66;;;8.90;80.48
86012;BME280;76591;42.170;27.850;2024-03-02T02:58:18;101070.19;;;8.86;80.44
86012;BME280;76591;42.170;27.850;2024-03-02T03:00:44;101071.84;;;8.87;80.51
86012;BME280;76591;42.170;27.850;2024-03-02T03:03:09;101068.13;;;8.89;80.40
86012;BME280;76591;42.170;27.850;2024-03-02T03:05:35;101076.88;;;8.84;80.60
86012;BME280;76591;42.170;27.850;2024-03-02T03:08:01;101073.94;;;8.79;80.71
86012;BME280;76591;42.170;27.850;2024-03-02T03:10:26;101079.16;;;8.87;80.56
86012;BME280;76591;42.170;27.850;2024-03-02T03:12:53;101084.16;;;8.90;80.29
86012;BME280;76591;42.170;27.850;2024-03-02T03:15:21;101090.22;;;8.85;80.03
86012;BME280;76591;42.170;27.850;2024-03-02T03:17:46;101078.13;;;8.88;80.34
86012;BME280;76591;42.170;27.850;2024-03-02T03:20:12;101072.28;;;8.91;80.08
86012;BME280;76591;42.170;27.850;2024-03-02T03:22:39;101076.03;;;8.90;80.08
86012;BME280;76591;42.170;27.850;2024-03-02T03:25:05;101072.69;;;8.88;79.88
86012;BME280;76591;42.170;27.850;2024-03-02T03:27:31;101070.41;;;8.85;79.91
86012;BME280;76591;42.170;27.850;2024-03-02T03:29:57;101072.28;;;8.84;79.99
86012;BME280;76591;42.170;27.850;2024-03-02T03:32:23;101066.88;;;8.84;79.77
86012;BME280;76591;42.170;27.850;2024-03-02T03:34:48;101067.69;;;8.85;79.95
86012;BME280;76591;42.170;27.850;2024-03-02T03:37:14;101064.34;;;8.83;79.91
86012;BME280;76591;42.170;27.850;2024-03-02T03:39:40;101069.16;;;8.81;80.04
86012;BME280;76591;42.170;27.850;2024-03-02T03:42:06;101059.56;;;8.78;79.99
86012;BME280;76591;42.170;27.850;2024-03-02T03:44:32;101058.94;;;8.83;80.08
86012;BME280;76591;42.170;27.850;2024-03-02T03:46:57;101060.19;;;8.87;80.20
86012;BME280;76591;42.170;27.850;2024-03-02T03:49:23;101060.44;;;8.85;80.23
86012;BME280;76591;42.170;27.850;2024-03-02T03:51:49;101056.66;;;8.86;80.32
86012;BME280;76591;42.170;27.850;2024-03-02T03:54:14;101056.66;;;8.86;80.05
86012;BME280;76591;42.170;27.850;2024-03-02T03:56:40;101049.38;;;8.87;80.29
86012;BME280;76591;42.170;27.850;2024-03-02T03:59:06;101048.13;;;8.83;80.30
86012;BME280;76591;42.170;27.850;2024-03-02T04:01:31;101036.03;;;8.79;80.19
86012;BME280;76591;42.170;27.850;2024-03-02T04:03:57;101035.66;;;8.75;80.40
86012;BME280;76591;42.170;27.850;2024-03-02T04:06:23;101036.28;;;8.77;80.33
86012;BME280;76591;42.170;27.850;2024-03-02T04:08:49;101043.13;;;8.73;80.45
86012;BME280;76591;42.170;27.850;2024-03-02T04:11:15;101043.34;;;8.72;80.36
86012;BME280;76591;42.170;27.850;2024-03-02T04:13:40;101047.28;;;8.76;80.52
86012;BME280;76591;42.170;27.850;2024-03-02T04:16:06;101046.88;;;8.79;80.64
86012;BME280;76591;42.170;27.850;2024-03-02T04:18:32;101053.34;;;8.78;80.49
86012;BME280;76591;42.170;27.850;2024-03-02T04:20:58;101058.13;;;8.82;80.64
86012;BME280;76591;42.170;27.850;2024-03-02T04:23:26;101059.56;;;8.85;80.50
86012;BME280;76591;42.170;27.850;2024-03-02T04:25:52;101061.66;;;8.83;80.36
86012;BME280;76591;42.170;27.850;2024-03-02T04:28:18;101050.19;;;8.81;80.61
86012;BME280;76591;42.170;27.850;2024-03-02T04:30:44;101057.50;;;8.80;80.75
86012;BME280;76591;42.170;27.850;2024-03-02T04:33:09;101058.53;;;8.79;80.45
86012;BME280;76591;42.170;27.850;2024-03-02T04:35:36;101047.72;;;8.79;80.25
86012;BME280;76591;42.170;27.850;2024-03-02T04:38:02;101040.00;;;8.76;80.59
86012;BME280;76591;42.170;27.850;2024-03-02T04:40:27;101039.81;;;8.78;80.85
86012;BME280;76591;42.170;27.850;2024-03-02T04:42:53;101035.66;;;8.75;80.90
86012;BME280;76591;42.170;27.850;2024-03-02T04:45:19;101023.56;;;8.71;80.83
86012;BME280;76591;42.170;27.850;2024-03-02T04:47:45;101029.81;;;8.65;81.03
86012;BME280;76591;42.170;27.850;2024-03-02T04:50:10;101035.66;;;8.62;81.50
86012;BME280;76591;42.170;27.850;2024-03-02T04:52:36;101042.31;;;8.59;81.60
86012;BME280;76591;42.170;27.850;2024-03-02T04:55:02;101031.28;;;8.54;81.74
86012;BME280;76591;42.170;27.850;2024-03-02T04:57:47;101025.22;;;8.59;81.63
86012;BME280;76591;42.170;27.850;2024-03-02T05:00:13;101030.44;;;8.67;81.76
86012;BME280;76591;42.170;27.850;2024-03-02T05:02:39;101031.47;;;8.73;81.57
86012;BME280;76591;42.170;27.850;2024-03-02T05:05:05;101037.09;;;8.71;81.74
86012;BME280;76591;42.170;27.850;2024-03-02T05:07:30;101039.81;;;8.71;81.56
86012;BME280;76591;42.170;27.850;2024-03-02T05:09:56;101053.75;;;8.75;81.83
86012;BME280;76591;42.170;27.850;2024-03-02T05:12:22;101047.91;;;8.78;81.63
86012;BME280;76591;42.170;27.850;2024-03-02T05:15:06;101041.69;;;8.77;81.48
86012;BME280;76591;42.170;27.850;2024-03-02T05:17:32;101043.97;;;8.74;81.49
86012;BME280;76591;42.170;27.850;2024-03-02T05:19:58;101038.97;;;8.71;81.36
86012;BME280;76591;42.170;27.850;2024-03-02T05:22:24;101032.31;;;8.66;81.59
86012;BME280;76591;42.170;27.850;2024-03-02T05:24:50;101030.00;;;8.70;81.77
86012;BME280;76591;42.170;27.850;2024-03-02T05:27:15;101036.28;;;8.71;81.80
86012;BME280;76591;42.170;27.850;2024-03-02T05:29:41;101033.56;;;8.71;81.71
86012;BME280;76591;42.170;27.850;2024-03-02T05:32:07;101031.50;;;8.66;81.96
86012;BME280;76591;42.170;27.850;2024-03-02T05:34:32;101042.09;;;8.68;81.95
86012;BME280;76591;42.170;27.850;2024-03-02T05:37:01;101046.69;;;8.67;82.00
86012;BME280;76591;42.170;27.850;2024-03-02T05:39:26;101032.50;;;8.65;82.08
86012;BME280;76591;42.170;27.850;2024-03-02T05:41:52;101035.03;;;8.66;81.73
86012;BME280;76591;42.170;27.850;2024-03-02T05:44:18;101032.94;;;8.69;81.90
86012;BME280;76591;42.170;27.850;2024-03-02T05:46:45;101033.34;;;8.72;81.87
86012;BME280;76591;42.170;27.850;2024-03-02T05:49:11;101040.44;;;8.73;81.70
86012;BME280;76591;42.170;27.850;2024-03-02T05:51:36;101060.41;;;8.79;81.49
86012;BME280;76591;42.170;27.850;2024-03-02T05:54:02;101056.47;;;8.81;81.50
86012;BME280;76591;42.170;27.850;2024-03-02T05:56:28;101056.66;;;8.86;81.31
86012;BME280;76591;42.170;27.850;2024-03-02T05:58:54;101050.63;;;8.78;81.46
86012;BME280;76591;42.170;27.850;2024-03-02T06:01:47;101052.72;;;8.76;81.53
86012;BME280;76591;42.170;27.850;2024-03-02T06:04:13;101052.50;;;8.77;81.40
86012;BME280;76591;42.170;27.850;2024-03-02T06:06:39;101050.00;;;8.82;81.49
86012;BME280;76591;42.170;27.850;2024-03-02T06:09:06;101049.78;;;8.84;81.01
86012;BME280;76591;42.170;27.850;2024-03-02T06:11:37;101045.81;;;8.86;81.14
86012;BME280;76591;42.170;27.850;2024-03-02T06:14:07;101042.50;;;8.84;81.25
86012;BME280;76591;42.170;27.850;2024-03-02T06:16:33;101039.59;;;8.86;81.04
86012;BME280;76591;42.170;27.850;2024-03-02T06:18:59;101044.78;;;8.87;81.19
86012;BME280;76591;42.170;27.850;2024-03-02T06:21:25;101043.31;;;8.85;81.08
86012;BME280;76591;42.170;27.850;2024-03-02T06:23:51;101046.88;;;8.92;80.84
86012;BME280;76591;42.170;27.850;2024-03-02T06:26:17;101043.31;;;8.98;80.88
86012;BME280;76591;42.170;27.850;2024-03-02T06:28:43;101054.75;;;9.00;80.74
86012;BME280;76591;42.170;27.850;2024-03-02T06:31:08;101059.13;;;9.08;81.00
86012;BME280;76591;42.170;27.850;2024-03-02T06:33:34;101062.03;;;9.06;80.74
86012;BME280;76591;42.170;27.850;2024-03-02T06:36:00;101069.16;;;9.07;80.62
86012;BME280;76591;42.170;27.850;2024-03-02T06:38:25;101065.38;;;9.08;80.60
86012;BME280;76591;42.170;27.850;2024-03-02T06:40:51;101063.31;;;9.04;80.45
86012;BME280;76591;42.170;27.850;2024-03-02T06:43:17;101056.22;;;9.03;80.46
86012;BME280;76591;42.170;27.850;2024-03-02T06:45:42;101059.78;;;9.03;80.31
86012;BME280;76591;42.170;27.850;2024-03-02T06:48:08;101065.38;;;9.08;80.67
86012;BME280;76591;42.170;27.850;2024-03-02T06:50:34;101066.00;;;9.11;80.42
86012;BME280;76591;42.170;27.850;2024-03-02T06:52:59;101063.50;;;9.09;80.21
86012;BME280;76591;42.170;27.850;2024-03-02T06:55:25;101073.06;;;9.05;80.32
86012;BME280;76591;42.170;27.850;2024-03-02T06:57:51;101073.94;;;9.05;80.53
86012;BME280;76591;42.170;27.850;2024-03-02T07:00:18;101064.31;;;9.03;80.46
86012;BME280;76591;42.170;27.850;2024-03-02T07:02:45;101061.84;;;9.01;80.76
86012;BME280;76591;42.170;27.850;2024-03-02T07:05:12;101061.41;;;9.04;80.97
86012;BME280;76591;42.170;27.850;2024-03-02T07:07:38;101057.44;;;9.07;80.91
86012;BME280;76591;42.170;27.850;2024-03-02T07:10:04;101061.41;;;9.04;80.82
86012;BME280;76591;42.170;27.850;2024-03-02T07:12:30;101064.75;;;9.13;81.00
86012;BME280;76591;42.170;27.850;2024-03-02T07:14:57;101061.63;;;9.10;81.01
86012;BME280;76591;42.170;27.850;2024-03-02T07:17:28;101058.06;;;9.09;80.75
86012;BME280;76591;42.170;27.850;2024-03-02T07:19:54;101064.34;;;9.10;81.00
86012;BME280;76591;42.170;27.850;2024-03-02T07:22:20;101070.97;;;9.14;80.97
86012;BME280;76591;42.170;27.850;2024-03-02T07:24:46;101063.72;;;9.14;80.81
86012;BME280;76591;42.170;27.850;2024-03-02T07:27:12;101072.84;;;9.20;80.80
86012;BME280;76591;42.170;27.850;2024-03-02T07:29:39;101076.41;;;9.14;80.73
86012;BME280;76591;42.170;27.850;2024-03-02T07:32:06;101068.72;;;9.11;80.80
86012;BME280;76591;42.170;27.850;2024-03-02T07:34:32;101075.19;;;9.10;81.00
86012;BME280;76591;42.170;27.850;2024-03-02T07:36:58;101072.06;;;9.06;81.10
86012;BME280;76591;42.170;27.850;2024-03-02T07:39:24;101067.44;;;9.13;80.89
86012;BME280;76591;42.170;27.850;2024-03-02T07:41:49;101070.97;;;9.20;81.01
86012;BME280;76591;42.170;27.850;2024-03-02T07:44:15;101070.75;;;9.22;80.89
86012;BME280;76591;42.170;27.850;2024-03-02T07:46:42;101067.88;;;9.10;80.80
86012;BME280;76591;42.170;27.850;2024-03-02T07:49:08;101066.19;;;9.09;80.98
86012;BME280;76591;42.170;27.850;2024-03-02T07:51:34;101082.44;;;9.09;81.13
86012;BME280;76591;42.170;27.850;2024-03-02T07:54:00;101087.66;;;9.17;80.97
86012;BME280;76591;42.170;27.850;2024-03-02T07:56:26;101093.47;;;9.27;80.89
86012;BME280;76591;42.170;27.850;2024-03-02T07:58:52;101101.81;;;9.26;80.77
86012;BME280;76591;42.170;27.850;2024-03-02T08:01:18;101101.59;;;9.27;80.67
86012;BME280;76591;42.170;27.850;2024-03-02T08:03:43;101104.09;;;9.29;80.59
86012;BME280;76591;42.170;27.850;2024-03-02T08:06:18;101094.75;;;9.25;80.64
86012;BME280;76591;42.170;27.850;2024-03-02T08:08:47;101099.91;;;9.26;80.49
86012;BME280;76591;42.170;27.850;2024-03-02T08:11:12;101099.09;;;9.26;80.34
86012;BME280;76591;42.170;27.850;2024-03-02T08:13:38;101097.63;;;9.30;80.35
86012;BME280;76591;42.170;27.850;2024-03-02T08:16:04;101095.94;;;9.29;79.99
86012;BME280;76591;42.170;27.850;2024-03-02T08:18:33;101090.97;;;9.33;80.23
86012;BME280;76591;42.170;27.850;2024-03-02T08:20:58;101098.88;;;9.41;79.62
86012;BME280;76591;42.170;27.850;2024-03-02T08:23:24;101093.25;;;9.42;79.82
86012;BME280;76591;42.170;27.850;2024-03-02T08:25:50;101085.91;;;9.49;79.59
86012;BME280;76591;42.170;27.850;2024-03-02T08:28:16;101088.63;;;9.49;79.16
86012;BME280;76591;42.170;27.850;2024-03-02T08:30:42;101099.25;;;9.58;78.88
86012;BME280;76591;42.170;27.850;2024-03-02T08:33:08;101090.88;;;9.59;78.96
86012;BME280;76591;42.170;27.850;2024-03-02T08:35:34;101088.56;;;9.63;78.60
86012;BME280;76591;42.170;27.850;2024-03-02T08:38:04;101090.03;;;9.59;78.40
86012;BME280;76591;42.170;27.850;2024-03-02T08:40:30;101083.38;;;9.61;78.32
86012;BME280;76591;42.170;27.850;2024-03-02T08:42:56;101074.16;;;9.69;78.04
86012;BME280;76591;42.170;27.850;2024-03-02T08:45:22;101074.34;;;9.74;77.62
86012;BME280;76591;42.170;27.850;2024-03-02T08:47:48;101075.59;;;9.78;77.55
86012;BME280;76591;42.170;27.850;2024-03-02T08:50:13;101078.47;;;9.83;77.54
86012;BME280;76591;42.170;27.850;2024-03-02T08:52:39;101067.47;;;9.72;77.43
86012;BME280;76591;42.170;27.850;2024-03-02T08:55:06;101069.56;;;9.69;77.67
86012;BME280;76591;42.170;27.850;2024-03-02T08:57:33;101069.75;;;9.75;77.81
86012;BME280;76591;42.170;27.850;2024-03-02T08:59:59;101080.56;;;9.81;78.00
86012;BME280;76591;42.170;27.850;2024-03-02T09:02:25;101075.63;;;9.72;77.87
86012;BME280;76591;42.170;27.850;2024-03-02T09:04:51;101088.94;;;9.80;77.91
86012;BME280;76591;42.170;27.850;2024-03-02T09:07:16;101090.19;;;9.70;77.93
86012;BME280;76591;42.170;27.850;2024-03-02T09:09:42;101085.03;;;9.62;78.11
86012;BME280;76591;42.170;27.850;2024-03-02T09:12:08;101090.03;;;9.65;78.48
86012;BME280;76591;42.170;27.850;2024-03-02T09:14:34;101081.22;;;9.77;78.26
86012;BME280;76591;42.170;27.850;2024-03-02T09:17:00;101077.47;;;9.78;78.30
86012;BME280;76591;42.170;27.850;2024-03-02T09:19:26;101083.94;;;9.77;78.19
86012;BME280;76591;42.170;27.850;2024-03-02T09:21:52;101082.66;;;9.79;78.28
86012;BME280;76591;42.170;27.850;2024-03-02T09:24:18;101082.59;;;9.93;77.98
86012;BME280;76591;42.170;27.850;2024-03-02T09:26:43;101074.66;;;9.98;77.72
86012;BME280;76591;42.170;27.850;2024-03-02T09:29:09;101068.78;;;10.01;77.85
86012;BME280;76591;42.170;27.850;2024-03-02T09:31:42;101065.50;;;9.92;77.16
86012;BME280;76591;42.170;27.850;2024-03-02T09:34:08;101066.00;;;9.76;77.72
86012;BME280;76591;42.170;27.850;2024-03-02T09:36:34;101062.81;;;9.85;77.70
86012;BME280;76591;42.170;27.850;2024-03-02T09:38:59;101062.16;;;9.90;77.60
86012;BME280;76591;42.170;27.850;2024-03-02T09:41:25;101064.66;;;9.92;77.79
86012;BME280;76591;42.170;27.850;2024-03-02T09:43:51;101057.13;;;10.00;77.56
86012;BME280;76591;42.170;27.850;2024-03-02T09:46:17;101061.47;;;10.01;77.42
86012;BME280;76591;42.170;27.850;2024-03-02T09:48:46;101067.09;;;10.06;77.08
86012;BME280;76591;42.170;27.850;2024-03-02T09:51:12;101056.38;;;10.18;77.47
86012;BME280;76591;42.170;27.850;2024-03-02T09:53:39;101053.50;;;10.13;76.95
86012;BME280;76591;42.170;27.850;2024-03-02T09:56:05;101047.69;;;10.03;76.90
86012;BME280;76591;42.170;27.850;2024-03-02T09:58:31;101059.00;;;10.00;77.39
86012;BME280;76591;42.170;27.850;2024-03-02T10:00:56;101061.09;;;9.98;76.91
86012;BME280;76591;42.170;27.850;2024-03-02T10:03:26;101064.63;;;9.98;77.08
86012;BME280;76591;42.170;27.850;2024-03-02T10:05:54;101059.25;;;9.92;77.20
86012;BME280;76591;42.170;27.850;2024-03-02T10:08:20;101064.00;;;9.96;77.13
86012;BME280;76591;42.170;27.850;2024-03-02T10:10:45;101075.31;;;9.93;77.02
86012;BME280;76591;42.170;27.850;2024-03-02T10:13:12;101068.81;;;9.94;77.23
86012;BME280;76591;42.170;27.850;2024-03-02T10:15:39;101057.34;;;9.92;76.97
86012;BME280;76591;42.170;27.850;2024-03-02T10:18:12;101053.03;;;9.84;77.04
86012;BME280;76591;42.170;27.850;2024-03-02T10:20:39;101047.38;;;9.86;77.12
86012;BME280;76591;42.170;27.850;2024-03-02T10:23:10;101044.81;;;9.98;77.24
86012;BME280;76591;42.170;27.850;2024-03-02T10:25:36;101041.50;;;9.96;77.18
86012;BME280;76591;42.170;27.850;2024-03-02T10:28:02;101043.38;;;9.95;77.03
86012;BME280;76591;42.170;27.850;2024-03-02T10:30:30;101049.63;;;9.96;77.12
86012;BME280;76591;42.170;27.850;2024-03-02T10:32:56;101040.25;;;9.92;77.44
86012;BME280;76591;42.170;27.850;2024-03-02T10:35:23;101029.53;;;10.03;77.11
86012;BME280;76591;42.170;27.850;2024-03-02T10:37:52;101027.44;;;10.05;76.86
86012;BME280;76591;42.170;27.850;2024-03-02T10:40:21;101024.97;;;10.04;77.11
86012;BME280;76591;42.170;27.850;2024-03-02T10:42:47;101017.13;;;10.21;76.85
86012;BME280;76591;42.170;27.850;2024-03-02T10:45:15;101013.41;;;10.15;76.61
86012;BME280;76591;42.170;27.850;2024-03-02T10:47:43;101018.06;;;10.01;76.90
86012;BME280;76591;42.170;27.850;2024-03-02T10:50:09;101023.28;;;10.03;76.67
86012;BME280;76591;42.170;27.850;2024-03-02T10:52:36;101026.25;;;9.95;76.66
86012;BME280;76591;42.170;27.850;2024-03-02T10:55:02;101023.81;;;9.86;76.92
86012;BME280;76591;42.170;27.850;2024-03-02T10:57:53;101025.44;;;9.94;76.98
86012;BME280;76591;42.170;27.850;2024-03-02T11:00:20;101020.56;;;10.03;76.83
86012;BME280;76591;42.170;27.850;2024-03-02T11:02:57;101027.03;;;10.08;76.55
86012;BME280;76591;42.170;27.850;2024-03-02T11:05:34;101024.16;;;9.97;76.80
86012;BME280;76591;42.170;27.850;2024-03-02T11:08:06;101013.88;;;10.05;76.54
86012;BME280;76591;42.170;27.850;2024-03-02T11:10:35;101004.91;;;10.05;76.41
86012;BME280;76591;42.170;27.850;2024-03-02T11:13:05;101006.59;;;10.06;76.34
86012;BME280;76591;42.170;27.850;2024-03-02T11:15:31;101015.94;;;10.10;76.27
86012;BME280;76591;42.170;27.850;2024-03-02T11:18:02;101012.03;;;10.06;76.33
86012;BME280;76591;42.170;27.850;2024-03-02T11:20:31;101009.06;;;10.07;76.26
86012;BME280;76591;42.170;27.850;2024-03-02T11:22:57;101006.56;;;10.13;76.13
86012;BME280;76591;42.170;27.850;2024-03-02T11:25:26;101007.22;;;10.01;76.45
86012;BME280;76591;42.170;27.850;2024-03-02T11:33:03;100999.53;;;9.98;76.23
86012;BME280;76591;42.170;27.850;2024-03-02T11:35:41;100997.44;;;10.00;75.87
86012;BME280;76591;42.170;27.850;2024-03-02T11:38:14;101001.81;;;10.01;75.59
86012;BME280;76591;42.170;27.850;2024-03-02T11:40:40;101013.25;;;10.03;75.81
86012;BME280;76591;42.170;27.850;2024-03-02T11:43:06;101012.84;;;10.06;75.65
86012;BME280;76591;42.170;27.850;2024-03-02T11:45:36;101002.22;;;10.05;75.57
86012;BME280;76591;42.170;27.850;2024-03-02T11:48:05;101009.94;;;10.01;75.54
86012;BME280;76591;42.170;27.850;2024-03-02T11:51:00;101004.50;;;10.01;75.82
86012;BME280;76591;42.170;27.850;2024-03-02T11:53:27;101004.09;;;10.04;75.67
86012;BME280;76591;42.170;27.850;2024-03-02T11:55:58;100996.38;;;10.08;75.68
86012;BME280;76591;42.170;27.850;2024-03-02T11:58:24;100985.28;;;10.09;75.75
86012;BME280;76591;42.170;27.850;2024-03-02T12:00:55;100997.50;;;10.19;75.72
86012;BME280;76591;42.170;27.850;2024-03-02T12:03:23;100991.72;;;10.15;75.66
86012;BME280;76591;42.170;27.850;2024-03-02T12:05:50;100991.16;;;10.06;75.79
86012;BME280;76591;42.170;27.850;2024-03-02T12:08:16;100992.19;;;10.05;75.68
86012;BME280;76591;42.170;27.850;2024-03-02T12:10:42;100991.53;;;10.10;76.14
86012;BME280;76591;42.170;27.850;2024-03-02T12:13:10;100987.22;;;10.02;76.22
86012;BME280;76591;42.170;27.850;2024-03-02T12:15:38;100998.09;;;9.96;76.26
86012;BME280;76591;42.170;27.850;2024-03-02T12:18:04;100995.09;;;10.10;76.37
86012;BME280;76591;42.170;27.850;2024-03-02T12:20:32;100989.03;;;10.08;75.99
86012;BME280;76591;42.170;27.850;2024-03-02T12:22:59;100991.50;;;10.17;76.08
86012;BME280;76591;42.170;27.850;2024-03-02T12:25:26;100980.13;;;10.26;75.75
86012;BME280;76591;42.170;27.850;2024-03-02T12:27:56;100971.16;;;10.33;75.48
86012;BME280;76591;42.170;27.850;2024-03-02T12:30:23;100982.63;;;10.28;75.56
86012;BME280;76591;42.170;27.850;2024-03-02T12:32:49;100978.00;;;10.35;75.44
86012;BME280;76591;42.170;27.850;2024-03-02T12:35:15;100974.78;;;10.20;75.32
86012;BME280;76591;42.170;27.850;2024-03-02T12:37:48;100981.56;;;10.04;75.55
86012;BME280;76591;42.170;27.850;2024-03-02T12:40:16;100986.06;;;10.17;75.92
86012;BME280;76591;42.170;27.850;2024-03-02T12:42:46;100978.47;;;10.25;75.77
86012;BME280;76591;42.170;27.850;2024-03-02T12:45:15;100979.75;;;10.23;75.59
86012;BME280;76591;42.170;27.850;2024-03-02T12:47:42;100973.75;;;10.14;75.67
86012;BME280;76591;42.170;27.850;2024-03-02T12:50:09;100971.31;;;10.38;75.71
86012;BME280;76591;42.170;27.850;2024-03-02T12:52:35;100973.13;;;10.44;75.09
86012;BME280;76591;42.170;27.850;2024-03-02T12:55:05;100980.16;;;10.51;74.92
86012;BME280;76591;42.170;27.850;2024-03-02T12:57:32;100976.78;;;10.56;74.74